createdAt,value
2022-12-09T00:01:43.916Z,28.30
2022-12-09T00:05:50.638Z,26.27
2022-12-09T00:09:55.733Z,23.43
2022-12-09T00:14:00.997Z,22.57
2022-12-09T00:18:06.243Z,24.03
2022-12-09T00:22:11.371Z,24.97
2022-12-09T00:26:18.361Z,30.80
2022-12-09T00:30:23.530Z,25.80
2022-12-09T00:34:28.487Z,27.63
2022-12-09T00:38:33.645Z,24.30
2022-12-09T00:42:38.714Z,27.00
2022-12-09T00:46:44.020Z,29.60
2022-12-09T00:50:49.060Z,26.07
2022-12-09T00:54:54.031Z,25.93
2022-12-09T00:58:59.277Z,26.27
2022-12-09T01:03:04.689Z,27.33
2022-12-09T01:07:11.056Z,25.33
2022-12-09T01:11:23.985Z,23.00
2022-12-09T01:15:29.506Z,27.10
2022-12-09T01:19:34.524Z,22.73
2022-12-09T01:23:39.677Z,27.93
2022-12-09T01:27:44.877Z,26.73
2022-12-09T01:31:50.042Z,23.90
2022-12-09T01:35:55.431Z,25.80
2022-12-09T01:40:00.599Z,29.03
2022-12-09T01:44:25.373Z,26.90
2022-12-09T01:48:35.655Z,27.40
2022-12-09T01:52:40.962Z,20.63
2022-12-09T01:56:45.875Z,24.50
2022-12-09T02:00:51.093Z,26.57
2022-12-09T02:04:56.724Z,26.50
2022-12-09T02:09:02.129Z,31.67
2022-12-09T02:13:49.227Z,30.80
2022-12-09T02:18:01.085Z,27.00
2022-12-09T02:22:09.683Z,20.83
2022-12-09T02:26:25.960Z,29.40
2022-12-09T02:30:52.306Z,27.30
2022-12-09T02:35:44.529Z,27.07
2022-12-09T02:40:03.974Z,24.13
2022-12-09T02:44:17.470Z,23.77
2022-12-09T02:48:31.337Z,24.77
2022-12-09T02:52:36.585Z,29.17
2022-12-09T02:56:50.882Z,21.83
2022-12-09T03:00:57.404Z,20.23
2022-12-09T03:05:11.347Z,26.30
2022-12-09T03:09:27.542Z,26.83
2022-12-09T03:13:51.863Z,30.90
2022-12-09T03:18:01.757Z,24.70
2022-12-09T03:22:15.979Z,29.07
2022-12-09T03:26:24.927Z,33.57
2022-12-09T03:30:37.986Z,31.43
2022-12-09T03:34:47.088Z,28.97
2022-12-09T03:38:53.891Z,31.63
2022-12-09T03:43:04.582Z,26.50
2022-12-09T03:47:10.632Z,27.70
2022-12-09T03:51:28.620Z,26.07
2022-12-09T03:55:48.394Z,23.40
2022-12-09T04:00:00.223Z,18.90
2022-12-09T04:04:05.387Z,28.07
2022-12-09T04:08:11.473Z,24.47
2022-12-09T04:12:16.466Z,23.13
2022-12-09T04:16:21.376Z,21.27
2022-12-09T04:20:26.577Z,26.07
2022-12-09T04:24:31.732Z,21.47
2022-12-09T04:28:36.725Z,25.60
2022-12-09T04:32:41.690Z,17.60
2022-12-09T04:36:48.588Z,17.73
2022-12-09T04:40:53.562Z,13.53
2022-12-09T04:44:58.636Z,22.87
2022-12-09T04:49:04.182Z,31.60
2022-12-09T04:53:09.745Z,19.83
2022-12-09T04:57:14.653Z,32.90
2022-12-09T05:01:29.876Z,23.77
2022-12-09T05:05:35.609Z,19.07
2022-12-09T05:09:41.158Z,22.80
2022-12-09T05:13:46.598Z,23.43
2022-12-09T05:17:51.919Z,20.67
2022-12-09T05:21:56.986Z,31.30
2022-12-09T05:26:09.353Z,21.60
2022-12-09T05:30:15.059Z,23.67
2022-12-09T05:34:20.676Z,20.53
2022-12-09T05:38:26.449Z,25.67
2022-12-09T05:42:35.169Z,20.60
2022-12-09T05:46:43.379Z,26.77
2022-12-09T05:50:58.253Z,29.17
2022-12-09T05:55:07.035Z,23.40
2022-12-09T05:59:12.144Z,21.90
2022-12-09T06:03:17.303Z,27.50
2022-12-09T06:07:23.242Z,25.00
2022-12-09T06:11:29.133Z,19.47
2022-12-09T06:15:35.335Z,23.60
2022-12-09T06:19:40.819Z,26.07
2022-12-09T06:23:46.325Z,22.37
2022-12-09T06:27:53.234Z,19.20
2022-12-09T06:31:58.340Z,22.93
2022-12-09T06:36:05.408Z,24.80
2022-12-09T06:40:11.710Z,24.40
2022-12-09T06:44:23.209Z,25.20
2022-12-09T06:48:28.925Z,34.00
2022-12-09T06:52:34.602Z,23.00
2022-12-09T06:56:39.880Z,22.90
2022-12-09T07:00:45.156Z,27.40
2022-12-09T07:04:57.497Z,23.57
2022-12-09T07:09:13.136Z,22.37
2022-12-09T07:13:18.369Z,22.80
2022-12-09T07:17:23.408Z,23.50
2022-12-09T07:21:29.177Z,26.80
2022-12-09T07:25:34.316Z,24.33
2022-12-09T07:29:39.611Z,22.03
2022-12-09T07:33:44.723Z,22.17
2022-12-09T07:37:49.832Z,21.00
2022-12-09T07:41:57.136Z,21.63
2022-12-09T07:46:07.065Z,24.63
2022-12-09T07:50:12.961Z,16.70
2022-12-09T07:54:19.792Z,19.93
2022-12-09T07:58:25.205Z,18.00
2022-12-09T08:02:30.222Z,22.77
2022-12-09T08:06:37.070Z,24.80
2022-12-09T08:10:44.676Z,23.73
2022-12-09T08:14:50.014Z,18.90
2022-12-09T08:18:56.383Z,25.43
2022-12-09T08:23:01.500Z,21.70
2022-12-09T08:27:06.832Z,20.17
2022-12-09T08:31:17.178Z,20.47
2022-12-09T08:35:22.987Z,22.83
2022-12-09T08:39:28.353Z,18.30
2022-12-09T08:43:33.777Z,22.60
2022-12-09T08:47:38.890Z,21.93
2022-12-09T08:51:45.518Z,24.90
2022-12-09T08:55:50.924Z,23.00
2022-12-09T08:59:55.887Z,24.60
2022-12-09T09:04:22.948Z,25.03
2022-12-09T09:08:31.368Z,24.37
2022-12-09T09:12:42.507Z,19.07
2022-12-09T09:16:49.183Z,21.87
2022-12-09T09:20:59.583Z,21.47
2022-12-09T09:25:05.846Z,21.60
2022-12-09T09:29:14.369Z,16.07
2022-12-09T09:33:19.566Z,22.10
2022-12-09T09:37:24.577Z,22.10
2022-12-09T09:41:55.629Z,17.10
2022-12-09T09:46:01.126Z,20.00
2022-12-09T09:50:34.493Z,18.10
2022-12-09T09:54:39.653Z,18.73
2022-12-09T09:59:21.498Z,17.07
2022-12-09T10:04:31.072Z,19.57
2022-12-09T10:08:59.563Z,20.10
2022-12-09T10:13:34.114Z,20.03
2022-12-09T10:17:56.357Z,19.53
2022-12-09T10:22:15.492Z,21.70
2022-12-09T10:26:28.218Z,20.60
2022-12-09T10:30:39.858Z,20.07
2022-12-09T10:34:49.598Z,19.03
2022-12-09T10:38:54.799Z,17.43
2022-12-09T10:43:19.400Z,20.30
2022-12-09T10:47:28.334Z,22.00
2022-12-09T10:51:39.121Z,13.47
2022-12-09T10:55:52.076Z,15.63
2022-12-09T11:00:19.852Z,14.43
2022-12-09T11:04:33.981Z,11.93
2022-12-09T11:08:42.536Z,16.57
2022-12-09T11:12:54.017Z,11.60
2022-12-09T11:17:20.272Z,15.00
2022-12-09T11:21:43.721Z,10.70
2022-12-09T11:25:57.731Z,14.40
2022-12-09T11:30:16.319Z,10.80
2022-12-09T11:34:26.200Z,14.17
2022-12-09T11:38:38.349Z,10.67
2022-12-09T11:42:43.339Z,11.43
2022-12-09T11:47:02.508Z,9.00
2022-12-09T11:51:36.817Z,10.93
2022-12-09T11:55:49.632Z,19.00
2022-12-09T12:00:01.324Z,9.93
2022-12-09T12:04:11.049Z,9.90
2022-12-09T12:08:30.696Z,13.43
2022-12-09T12:13:22.502Z,11.60
2022-12-09T12:17:35.331Z,14.43
2022-12-09T12:22:16.754Z,10.00
2022-12-09T12:26:34.733Z,12.37
2022-12-09T12:31:16.640Z,12.90
2022-12-09T12:35:33.550Z,16.23
2022-12-09T12:40:15.222Z,11.50
2022-12-09T12:45:13.913Z,15.47
2022-12-09T12:50:06.066Z,10.50
2022-12-09T12:54:30.809Z,13.40
2022-12-09T12:59:16.620Z,10.63
2022-12-09T13:03:47.539Z,12.37
2022-12-09T13:08:28.706Z,12.27
2022-12-09T14:34:01.146Z,15.87
2022-12-09T14:39:15.763Z,18.47
2022-12-09T14:43:50.465Z,19.57
2022-12-09T14:47:56.277Z,13.77
2022-12-09T14:52:15.614Z,19.97
2022-12-09T14:56:23.226Z,19.37
2022-12-09T15:00:40.830Z,24.03
2022-12-09T15:04:49.442Z,19.43
2022-12-09T15:08:58.986Z,15.17
2022-12-09T15:13:05.439Z,17.90
2022-12-09T15:17:27.543Z,20.83
2022-12-09T15:21:32.990Z,28.93
2022-12-09T15:25:58.004Z,21.90
2022-12-09T15:30:22.680Z,21.77
2022-12-09T15:34:29.086Z,20.50
2022-12-09T15:38:42.840Z,19.20
2022-12-09T15:42:51.468Z,26.60
2022-12-09T15:46:58.137Z,25.13
2022-12-09T15:51:09.682Z,17.97
2022-12-09T15:55:19.687Z,21.07
2022-12-09T15:59:37.365Z,24.03
2022-12-09T16:03:42.433Z,18.93
2022-12-09T16:08:00.454Z,19.53
2022-12-09T16:12:24.604Z,16.30
2022-12-09T16:16:57.418Z,17.20
2022-12-09T16:21:26.621Z,17.00
2022-12-09T16:25:44.571Z,17.57
2022-12-09T16:29:59.159Z,19.37
2022-12-09T16:34:04.318Z,17.37
2022-12-09T16:38:12.052Z,15.30
2022-12-09T16:42:39.424Z,15.63
2022-12-09T16:46:45.802Z,14.40
2022-12-09T16:51:04.041Z,18.37
2022-12-09T16:55:24.583Z,15.30
2022-12-09T16:59:37.075Z,18.43
2022-12-09T17:03:52.379Z,17.17
2022-12-09T17:07:57.407Z,25.93
2022-12-09T17:12:02.315Z,28.60
2022-12-09T17:16:08.121Z,17.53
2022-12-09T17:20:13.798Z,18.50
2022-12-09T17:24:20.851Z,19.60
2022-12-09T17:28:30.024Z,20.70
2022-12-09T17:32:35.233Z,28.20
2022-12-09T17:36:40.095Z,21.50
2022-12-09T17:40:45.021Z,23.77
2022-12-09T17:44:49.877Z,22.03
2022-12-09T17:48:54.771Z,19.63
2022-12-09T17:52:59.626Z,20.07
2022-12-09T17:57:04.574Z,21.10
2022-12-09T18:01:22.531Z,24.50
2022-12-09T18:05:27.543Z,21.83
2022-12-09T18:09:32.527Z,27.53
2022-12-09T18:13:38.478Z,30.47
2022-12-09T18:17:43.339Z,26.27
2022-12-09T18:21:48.417Z,31.73
2022-12-09T18:25:53.405Z,34.20
2022-12-09T18:29:58.528Z,29.13
2022-12-09T18:34:03.413Z,46.03
2022-12-09T18:38:12.688Z,27.53
2022-12-09T18:42:17.973Z,26.40
2022-12-09T18:46:28.696Z,23.10
2022-12-09T18:50:37.255Z,26.40
2022-12-09T18:54:42.188Z,21.83
2022-12-09T18:59:05.881Z,20.77
2022-12-09T19:03:12.107Z,22.00
2022-12-09T19:07:17.048Z,20.20
2022-12-09T19:11:26.551Z,23.80
2022-12-09T19:15:31.677Z,22.60
2022-12-09T19:19:36.566Z,19.90
2022-12-09T19:23:43.573Z,20.80
2022-12-09T19:27:48.547Z,22.00
2022-12-09T19:31:54.460Z,21.70
2022-12-09T19:36:04.022Z,19.00
2022-12-09T19:40:10.490Z,18.37
2022-12-09T19:44:37.370Z,16.27
2022-12-09T19:48:44.447Z,18.10
2022-12-09T19:52:49.443Z,14.57
2022-12-09T19:56:54.662Z,16.20
2022-12-09T20:00:59.575Z,20.33
2022-12-09T20:05:05.437Z,19.13
2022-12-09T20:09:13.922Z,17.00
2022-12-09T20:13:18.825Z,15.13
2022-12-09T20:17:23.787Z,16.40
2022-12-09T20:21:30.632Z,20.40
2022-12-09T20:25:36.788Z,19.87
2022-12-09T20:29:41.711Z,18.67
2022-12-09T20:33:47.050Z,14.40
2022-12-09T20:37:51.978Z,15.57
2022-12-09T20:41:56.903Z,16.00
2022-12-09T20:46:06.287Z,19.60
2022-12-09T20:50:11.772Z,20.63
2022-12-09T20:54:16.691Z,17.67
2022-12-09T20:58:21.591Z,23.00
2022-12-09T21:02:26.684Z,22.10
2022-12-09T21:06:35.935Z,20.03
2022-12-09T21:10:40.829Z,22.57
2022-12-09T21:14:46.032Z,21.63
2022-12-09T21:18:55.990Z,24.60
2022-12-09T21:23:32.364Z,28.40
2022-12-09T21:27:25.724Z,23.97
2022-12-09T21:31:33.771Z,19.63
2022-12-09T21:35:45.084Z,22.53
2022-12-09T21:39:50.067Z,23.10
2022-12-09T21:43:55.640Z,22.40
2022-12-09T21:48:00.514Z,18.33
2022-12-09T21:52:09.581Z,19.20
2022-12-09T21:56:19.419Z,14.50
2022-12-09T22:00:24.287Z,14.90
2022-12-09T22:04:29.167Z,17.00
2022-12-09T22:08:34.938Z,14.63
2022-12-09T22:12:39.914Z,19.53
2022-12-09T22:16:46.409Z,22.87
2022-12-09T22:25:16.415Z,21.70
2022-12-09T22:29:21.320Z,22.40
2022-12-09T22:33:26.523Z,18.07
2022-12-09T22:37:46.624Z,20.50
2022-12-09T22:41:51.858Z,17.07
2022-12-09T22:45:56.869Z,16.63
2022-12-09T22:50:01.768Z,17.47
2022-12-09T22:54:08.520Z,18.67
2022-12-09T22:58:14.865Z,20.07
2022-12-09T23:02:19.834Z,15.53
2022-12-09T23:06:26.597Z,16.00
2022-12-09T23:10:32.764Z,18.97
2022-12-09T23:14:37.973Z,19.40
2022-12-09T23:18:43.354Z,20.83
2022-12-09T23:22:48.229Z,19.23
2022-12-09T23:26:55.997Z,23.93
2022-12-09T23:31:06.317Z,18.30
2022-12-09T23:35:11.437Z,16.53
2022-12-09T23:39:18.869Z,16.80
2022-12-09T23:43:23.934Z,19.10
2022-12-09T23:47:28.805Z,19.47
2022-12-09T23:51:37.743Z,19.00
2022-12-09T23:55:43.129Z,14.27
2022-12-09T23:59:49.597Z,20.77
